createdAt,value
2022-07-26T00:00:54.088Z,7.82
2022-07-26T00:05:49.566Z,7.50
2022-07-26T00:08:17.142Z,7.97
2022-07-26T00:18:49.681Z,7.20
2022-07-26T00:21:17.437Z,7.13
2022-07-26T00:23:45.211Z,8.02
2022-07-26T00:26:12.798Z,7.80
2022-07-26T00:37:00.122Z,7.18
2022-07-26T00:39:29.114Z,7.90
2022-07-26T00:41:56.841Z,7.13
2022-07-26T00:52:48.502Z,8.13
2022-07-26T00:55:17.540Z,8.18
2022-07-26T00:57:45.725Z,7.30
2022-07-26T01:00:16.720Z,8.43
2022-07-26T01:02:44.753Z,6.45
2022-07-26T01:05:12.678Z,8.00
2022-07-26T01:07:40.994Z,7.22
2022-07-26T01:10:12.769Z,10.82
2022-07-26T01:12:42.305Z,6.43
2022-07-26T01:15:14.941Z,6.63
2022-07-26T01:17:42.706Z,7.82
2022-07-26T01:20:12.484Z,6.63
2022-07-26T01:22:40.253Z,7.57
2022-07-26T01:25:09.143Z,9.02
2022-07-26T01:27:39.680Z,6.88
2022-07-26T01:30:10.087Z,7.85
2022-07-26T01:32:37.549Z,8.27
2022-07-26T01:35:07.026Z,9.10
2022-07-26T01:37:34.823Z,7.75
2022-07-26T01:40:02.723Z,7.13
2022-07-26T01:47:50.647Z,9.30
2022-07-26T01:50:18.773Z,7.93
2022-07-26T01:52:46.560Z,7.45
2022-07-26T01:55:14.155Z,7.90
2022-07-26T01:57:42.628Z,7.32
2022-07-26T02:00:10.729Z,8.48
2022-07-26T02:02:38.703Z,7.30
2022-07-26T02:05:06.655Z,7.70
2022-07-26T02:07:42.755Z,6.80
2022-07-26T02:10:14.596Z,7.13
2022-07-26T02:12:42.524Z,8.90
2022-07-26T02:15:11.362Z,6.20
2022-07-26T02:17:38.964Z,8.13
2022-07-26T02:20:08.022Z,7.95
2022-07-26T02:31:32.041Z,6.30
2022-07-26T02:34:00.313Z,9.05
2022-07-26T02:36:28.010Z,6.65
2022-07-26T02:38:55.486Z,6.88
2022-07-26T02:41:23.099Z,7.18
2022-07-26T02:49:14.307Z,8.15
2022-07-26T02:51:41.816Z,6.70
2022-07-26T02:54:09.682Z,6.30
2022-07-26T02:56:37.450Z,5.72
2022-07-26T02:59:05.224Z,6.90
2022-07-26T03:01:35.346Z,6.85
2022-07-26T03:04:03.872Z,5.82
2022-07-26T03:06:31.757Z,6.40
2022-07-26T03:09:00.308Z,8.20
2022-07-26T03:11:28.328Z,5.55
2022-07-26T03:13:55.811Z,5.68
2022-07-26T03:16:27.492Z,6.88
2022-07-26T03:24:16.207Z,8.05
2022-07-26T03:26:43.711Z,7.43
2022-07-26T03:29:11.103Z,6.10
2022-07-26T03:31:38.687Z,7.28
2022-07-26T03:42:04.292Z,6.53
2022-07-26T03:44:31.789Z,5.57
2022-07-26T03:46:59.663Z,9.55
2022-07-26T03:49:27.404Z,7.78
2022-07-26T03:51:55.791Z,9.48
2022-07-26T03:54:23.201Z,6.53
2022-07-26T03:56:50.908Z,5.55
2022-07-26T03:59:18.981Z,7.10
2022-07-26T04:01:47.945Z,5.85
2022-07-26T04:04:18.242Z,9.18
2022-07-26T04:06:48.611Z,8.23
2022-07-26T04:09:16.464Z,7.32
2022-07-26T04:11:44.260Z,7.18
2022-07-26T04:14:12.422Z,5.45
2022-07-26T04:16:43.685Z,8.00
2022-07-26T04:24:36.485Z,5.03
2022-07-26T04:27:04.043Z,9.98
2022-07-26T04:29:31.534Z,5.15
2022-07-26T04:31:59.071Z,6.95
2022-07-26T04:34:26.624Z,6.18
2022-07-26T04:36:54.048Z,5.63
2022-07-26T04:39:25.094Z,6.15
2022-07-26T04:41:52.614Z,8.27
2022-07-26T04:44:20.137Z,5.80
2022-07-26T04:46:47.689Z,6.72
2022-07-26T04:49:15.412Z,6.38
2022-07-26T04:51:42.935Z,7.15
2022-07-26T04:54:10.885Z,7.80
2022-07-26T04:56:38.746Z,5.97
2022-07-26T04:59:07.628Z,6.65
2022-07-26T05:01:35.194Z,10.15
2022-07-26T05:04:02.790Z,9.18
2022-07-26T05:06:32.413Z,5.70
2022-07-26T05:08:59.891Z,6.80
2022-07-26T05:11:27.508Z,5.85
2022-07-26T05:13:56.048Z,8.20
2022-07-26T05:16:23.703Z,6.15
2022-07-26T05:18:51.101Z,7.40
2022-07-26T05:21:19.369Z,5.32
2022-07-26T05:23:47.043Z,6.70
2022-07-26T05:26:14.995Z,7.93
2022-07-26T05:28:42.503Z,6.60
2022-07-26T05:31:12.150Z,5.53
2022-07-26T05:33:39.799Z,6.40
2022-07-26T05:44:15.554Z,6.32
2022-07-26T05:46:42.894Z,6.55
2022-07-26T05:49:10.395Z,6.57
2022-07-26T05:51:38.137Z,5.65
2022-07-26T06:07:36.840Z,8.40
2022-07-26T06:10:05.043Z,5.75
2022-07-26T06:12:32.827Z,5.25
2022-07-26T06:15:00.366Z,6.15
2022-07-26T06:17:30.541Z,5.55
2022-07-26T06:19:59.255Z,5.05
2022-07-26T06:22:31.718Z,7.97
2022-07-26T06:24:59.106Z,5.40
2022-07-26T06:27:26.782Z,5.55
2022-07-26T06:29:55.079Z,6.22
2022-07-26T06:32:23.056Z,4.20
2022-07-26T06:34:50.562Z,5.28
2022-07-26T06:37:18.097Z,8.18
2022-07-26T06:39:45.722Z,6.53
2022-07-26T06:42:13.098Z,8.07
2022-07-26T06:44:40.826Z,8.05
2022-07-26T06:47:08.326Z,8.07
2022-07-26T06:49:35.910Z,6.88
2022-07-26T06:52:03.631Z,5.18
2022-07-26T06:54:31.144Z,5.43
2022-07-26T06:57:07.991Z,6.18
2022-07-26T06:59:35.900Z,5.20
2022-07-26T07:02:04.314Z,6.07
2022-07-26T07:04:33.558Z,8.88
2022-07-26T07:07:06.443Z,5.85
2022-07-26T07:09:35.032Z,5.22
2022-07-26T07:12:10.364Z,6.43
2022-07-26T07:14:42.008Z,5.38
2022-07-26T07:17:11.212Z,8.82
2022-07-26T07:19:41.557Z,5.22
2022-07-26T07:22:12.429Z,5.47
2022-07-26T07:24:41.276Z,5.93
2022-07-26T07:27:10.375Z,4.03
2022-07-26T07:29:41.124Z,4.50
2022-07-26T07:59:29.155Z,9.68
2022-07-26T08:01:56.479Z,5.85
2022-07-26T08:04:24.181Z,6.03
2022-07-26T08:06:51.824Z,5.72
2022-07-26T08:09:19.468Z,7.10
2022-07-26T08:11:50.696Z,5.10
2022-07-26T08:14:24.370Z,5.70
2022-07-26T08:16:52.490Z,5.28
2022-07-26T08:19:19.957Z,5.78
2022-07-26T08:21:50.161Z,6.32
2022-07-26T08:24:17.750Z,8.40
2022-07-26T08:26:45.157Z,4.90
2022-07-26T08:29:13.286Z,9.35
2022-07-26T08:31:40.990Z,4.50
2022-07-26T08:34:08.702Z,5.75
2022-07-26T08:36:36.760Z,7.30
2022-07-26T08:50:04.770Z,3.97
2022-07-26T09:01:33.782Z,4.25
2022-07-26T10:18:40.593Z,3.22
2022-07-26T11:53:22.292Z,8.13
2022-07-26T11:55:49.707Z,10.15
2022-07-26T11:58:17.289Z,8.38
2022-07-26T12:00:44.791Z,9.13
2022-07-26T12:10:43.558Z,11.02
2022-07-26T12:32:30.673Z,11.82
2022-07-26T12:45:26.085Z,10.65
2022-07-26T12:54:37.219Z,10.93
2022-07-26T12:57:04.713Z,11.57
2022-07-26T13:05:00.030Z,12.00
2022-07-26T13:37:08.553Z,10.88
2022-07-26T13:39:36.126Z,8.52
2022-07-26T13:42:04.153Z,15.55
2022-07-26T13:47:20.983Z,10.85
2022-07-26T13:57:08.109Z,13.55
2022-07-26T14:06:16.018Z,12.57
2022-07-26T14:08:43.832Z,12.40
2022-07-26T14:14:11.064Z,9.82
2022-07-26T14:16:39.542Z,9.13
2022-07-26T14:21:58.757Z,7.70
2022-07-26T14:24:28.880Z,8.65
2022-07-26T14:26:59.692Z,7.95
2022-07-26T14:29:28.585Z,9.02
2022-07-26T14:35:17.576Z,10.35
2022-07-26T14:37:45.798Z,11.02
2022-07-26T14:43:33.291Z,13.00
2022-07-26T14:46:07.200Z,9.80
2022-07-26T14:51:49.991Z,9.40
2022-07-26T14:54:25.839Z,9.30
2022-07-26T14:56:59.613Z,9.63
2022-07-26T14:59:27.101Z,10.20
2022-07-26T15:01:54.495Z,12.23
2022-07-26T15:04:22.116Z,9.30
2022-07-26T15:06:49.507Z,8.95
2022-07-26T15:09:17.404Z,9.40
2022-07-26T15:11:45.018Z,8.18
2022-07-26T15:17:02.099Z,9.48
2022-07-26T15:19:29.744Z,9.85
2022-07-26T15:21:57.345Z,11.05
2022-07-26T15:24:25.314Z,9.93
2022-07-26T15:26:52.881Z,12.05
2022-07-26T15:29:36.501Z,7.80
2022-07-26T15:37:45.573Z,11.23
2022-07-26T15:49:41.365Z,9.20
2022-07-26T15:52:11.575Z,8.13
2022-07-26T16:01:29.324Z,14.55
2022-07-26T16:03:56.846Z,8.63
2022-07-26T16:09:18.200Z,9.05
2022-07-26T16:18:07.527Z,14.30
2022-07-26T16:20:36.194Z,10.90
2022-07-26T16:23:04.127Z,15.70
2022-07-26T16:25:31.701Z,12.63
2022-07-26T16:27:59.687Z,13.23
2022-07-26T16:30:27.738Z,12.82
2022-07-26T16:32:55.391Z,12.35
2022-07-26T16:35:23.334Z,11.63
2022-07-26T16:37:50.847Z,11.18
2022-07-26T16:40:21.048Z,10.48
2022-07-26T16:42:48.493Z,11.27
2022-07-26T16:47:54.588Z,12.50
2022-07-26T16:50:27.972Z,10.00
2022-07-26T16:52:55.679Z,9.30
2022-07-26T16:55:23.324Z,10.65
2022-07-26T16:57:51.169Z,9.80
2022-07-26T17:00:20.418Z,7.35
2022-07-26T17:02:48.742Z,7.28
2022-07-26T17:07:52.353Z,5.95
2022-07-26T17:10:20.742Z,7.03
2022-07-26T17:15:16.423Z,7.57
2022-07-26T17:17:48.551Z,7.75
2022-07-26T17:20:16.771Z,9.73
2022-07-26T17:22:44.417Z,8.20
2022-07-26T17:25:12.282Z,6.70
2022-07-26T17:27:40.192Z,7.40
2022-07-26T17:30:08.302Z,7.18
2022-07-26T17:35:07.299Z,10.50
2022-07-26T17:37:35.203Z,6.85
2022-07-26T17:40:32.374Z,6.82
2022-07-26T17:46:04.963Z,9.45
2022-07-26T17:48:32.570Z,8.43
2022-07-26T17:51:00.212Z,9.05
2022-07-26T17:53:34.701Z,7.50
2022-07-26T17:56:03.399Z,10.43
2022-07-26T17:58:31.025Z,10.45
2022-07-26T18:00:58.757Z,11.23
2022-07-26T18:03:26.326Z,9.50
2022-07-26T18:05:53.962Z,8.68
2022-07-26T18:08:27.054Z,7.30
2022-07-26T18:10:55.883Z,6.38
2022-07-26T18:13:23.892Z,9.80
2022-07-26T18:15:52.118Z,11.93
2022-07-26T18:18:20.146Z,7.30
2022-07-26T18:20:47.747Z,7.13
2022-07-26T18:23:15.603Z,10.68
2022-07-26T18:25:43.414Z,9.73
2022-07-26T18:28:11.325Z,9.05
2022-07-26T18:30:42.348Z,7.07
2022-07-26T18:33:12.103Z,8.88
2022-07-26T18:35:39.977Z,10.18
2022-07-26T18:38:08.185Z,9.60
2022-07-26T18:40:35.993Z,11.60
2022-07-26T18:56:10.150Z,8.30
2022-07-26T19:01:13.806Z,8.85
2022-07-26T19:06:29.446Z,11.50
2022-07-26T19:08:57.430Z,10.20
2022-07-26T19:11:27.327Z,9.38
2022-07-26T19:13:54.838Z,9.73
2022-07-26T19:16:22.347Z,9.52
2022-07-26T19:18:53.794Z,9.70
2022-07-26T19:21:24.801Z,8.70
2022-07-26T19:27:01.896Z,9.38
2022-07-26T19:29:29.486Z,8.30
2022-07-26T19:31:57.401Z,8.70
2022-07-26T19:34:26.891Z,8.70
2022-07-26T19:36:54.357Z,11.20
2022-07-26T19:41:57.999Z,8.35
2022-07-26T19:44:26.029Z,9.05
2022-07-26T19:46:57.547Z,10.75
2022-07-26T19:49:27.727Z,9.85
2022-07-26T19:51:55.335Z,9.18
2022-07-26T19:54:23.046Z,11.10
2022-07-26T19:56:50.527Z,7.93
2022-07-26T20:03:06.426Z,11.57
2022-07-26T20:25:21.596Z,11.15
2022-07-26T20:30:51.859Z,10.85
2022-07-26T20:33:19.668Z,14.02
2022-07-26T20:35:50.354Z,11.02
2022-07-26T20:53:03.565Z,10.23
2022-07-26T20:55:31.184Z,12.73
2022-07-26T21:01:13.774Z,10.15
2022-07-26T21:06:32.690Z,12.80
2022-07-26T21:14:21.481Z,11.05
2022-07-26T21:32:50.962Z,13.45
2022-07-26T21:58:50.978Z,12.98
2022-07-26T22:38:19.260Z,9.00
2022-07-26T22:44:24.233Z,11.45
2022-07-26T23:02:50.363Z,9.82
2022-07-26T23:13:59.528Z,11.15
2022-07-26T23:16:31.497Z,12.80
2022-07-26T23:18:59.059Z,15.57
2022-07-26T23:21:27.827Z,13.52
2022-07-26T23:23:55.304Z,13.65
2022-07-26T23:26:38.252Z,12.30
2022-07-26T23:29:06.364Z,10.80
2022-07-26T23:37:01.351Z,10.05
2022-07-26T23:52:27.826Z,11.50
